createdAt,value
2023-04-08T00:00:15.608Z,95480.47
2023-04-08T00:02:44.805Z,95495.72
2023-04-08T00:05:13.770Z,95482.63
2023-04-08T00:07:42.604Z,95503.34
2023-04-08T00:10:11.574Z,95502.16
2023-04-08T00:12:41.553Z,95501.53
2023-04-08T00:15:10.796Z,95511.88
2023-04-08T00:17:39.674Z,95519.28
2023-04-08T00:20:09.223Z,95526.09
2023-04-08T00:22:38.273Z,95526.41
2023-04-08T00:25:07.673Z,95534.63
2023-04-08T00:27:36.550Z,95532.66
2023-04-08T00:30:06.565Z,95540.31
2023-04-08T00:32:35.435Z,95541.31
2023-04-08T00:35:04.951Z,95549.38
2023-04-08T00:37:33.887Z,95547.78
2023-04-08T00:40:02.744Z,95555.81
2023-04-08T00:42:31.970Z,95563.06
2023-04-08T00:45:01.037Z,95558.78
2023-04-08T00:47:31.888Z,95553.09
2023-04-08T00:50:00.938Z,95576.19
2023-04-08T00:52:31.469Z,95578.06
2023-04-08T00:55:00.251Z,95593.66
2023-04-08T00:57:29.425Z,95587.03
2023-04-08T00:59:58.415Z,95589.31
2023-04-08T01:02:38.122Z,95591.88
2023-04-08T01:05:23.921Z,95596.97
2023-04-08T01:07:53.537Z,95592.84
2023-04-08T01:10:32.285Z,95600.09
2023-04-08T01:13:10.930Z,95603.41
2023-04-08T01:15:45.469Z,95610.88
2023-04-08T01:18:17.961Z,95613.88
2023-04-08T01:20:48.592Z,95613.25
2023-04-08T01:23:33.166Z,95604.34
2023-04-08T01:26:03.016Z,95617.56
2023-04-08T01:28:34.676Z,95617.31
2023-04-08T01:31:04.969Z,95616.97
2023-04-08T01:33:34.944Z,95619.28
2023-04-08T01:36:05.235Z,95609.75
2023-04-08T01:38:35.815Z,95616.56
2023-04-08T01:41:06.359Z,95611.41
2023-04-08T01:43:36.435Z,95619.88
2023-04-08T01:46:08.398Z,95636.16
2023-04-08T01:48:38.304Z,95626.97
2023-04-08T01:51:08.181Z,95632.28
2023-04-08T01:53:38.400Z,95638.88
2023-04-08T01:56:12.698Z,95650.94
2023-04-08T01:58:53.104Z,95653.28
2023-04-08T02:01:26.929Z,95652.38
2023-04-08T02:03:58.586Z,95654.41
2023-04-08T02:06:29.936Z,95655.69
2023-04-08T02:09:00.029Z,95664.84
2023-04-08T02:11:29.934Z,95661.75
2023-04-08T02:13:59.704Z,95664.88
2023-04-08T02:16:43.864Z,95674.69
2023-04-08T02:19:20.840Z,95672.75
2023-04-08T02:21:55.908Z,95644.38
2023-04-08T02:24:26.174Z,95665.25
2023-04-08T02:26:57.446Z,95670.13
2023-04-08T02:29:30.658Z,95667.47
2023-04-08T02:32:02.333Z,95668.25
2023-04-08T02:34:32.821Z,95671.84
2023-04-08T02:37:03.625Z,95674.78
2023-04-08T02:39:33.360Z,95681.47
2023-04-08T02:42:02.550Z,95669.13
2023-04-08T02:44:31.342Z,95683.38
2023-04-08T02:47:03.964Z,95684.50
2023-04-08T02:49:32.902Z,95679.88
2023-04-08T02:52:01.862Z,95678.75
2023-04-08T02:54:30.856Z,95685.72
2023-04-08T02:56:59.647Z,95698.50
2023-04-08T02:59:28.447Z,95703.53
2023-04-08T03:01:58.627Z,95707.00
2023-04-08T03:04:27.672Z,95706.22
2023-04-08T03:06:56.899Z,95712.03
2023-04-08T03:09:26.013Z,95718.44
2023-04-08T03:11:55.447Z,95720.41
2023-04-08T03:14:24.155Z,95714.34
2023-04-08T03:16:52.900Z,95717.47
2023-04-08T03:19:21.858Z,95722.09
2023-04-08T03:21:50.675Z,95714.34
2023-04-08T03:24:19.963Z,95708.56
2023-04-08T03:26:48.712Z,95714.72
2023-04-08T03:29:17.601Z,95720.16
2023-04-08T03:31:46.519Z,95723.22
2023-04-08T03:34:15.488Z,95727.78
2023-04-08T03:36:44.275Z,95721.22
2023-04-08T03:39:13.143Z,95715.19
2023-04-08T03:41:41.907Z,95730.34
2023-04-08T03:44:11.102Z,95742.31
2023-04-08T03:46:40.234Z,95743.16
2023-04-08T03:49:09.602Z,95734.81
2023-04-08T03:51:38.406Z,95746.03
2023-04-08T03:54:08.351Z,95753.25
2023-04-08T03:56:37.218Z,95758.97
2023-04-08T03:59:06.923Z,95755.25
2023-04-08T04:01:36.542Z,95754.28
2023-04-08T04:04:05.806Z,95759.75
2023-04-08T04:06:34.889Z,95747.41
2023-04-08T04:09:03.783Z,95760.75
2023-04-08T04:11:32.662Z,95763.75
2023-04-08T04:14:01.616Z,95759.91
2023-04-08T04:16:32.813Z,95761.16
2023-04-08T04:19:02.162Z,95760.38
2023-04-08T04:21:31.267Z,95761.25
2023-04-08T04:24:00.147Z,95760.13
2023-04-08T04:26:29.313Z,95769.56
2023-04-08T04:28:58.177Z,95771.63
2023-04-08T04:31:27.198Z,95767.38
2023-04-08T04:33:56.248Z,95770.47
2023-04-08T04:36:25.591Z,95779.56
2023-04-08T04:38:54.696Z,95781.31
2023-04-08T04:41:23.687Z,95768.53
2023-04-08T04:43:52.562Z,95778.16
2023-04-08T04:46:21.981Z,95781.06
2023-04-08T04:48:52.115Z,95782.22
2023-04-08T04:51:21.981Z,95780.47
2023-04-08T04:53:51.137Z,95780.81
2023-04-08T04:56:19.974Z,95787.72
2023-04-08T04:58:49.538Z,95793.72
2023-04-08T05:01:19.729Z,95790.78
2023-04-08T05:03:48.989Z,95786.66
2023-04-08T05:06:17.960Z,95779.19
2023-04-08T05:08:48.193Z,95784.00
2023-04-08T05:11:18.970Z,95783.63
2023-04-08T05:13:48.173Z,95791.03
2023-04-08T05:16:17.228Z,95780.41
2023-04-08T05:18:46.468Z,95787.00
2023-04-08T05:21:15.545Z,95794.72
2023-04-08T05:23:44.520Z,95784.41
2023-04-08T05:26:14.195Z,95795.09
2023-04-08T05:28:45.304Z,95786.72
2023-04-08T05:31:17.299Z,95775.22
2023-04-08T05:33:46.907Z,95786.84
2023-04-08T05:36:16.423Z,95789.78
2023-04-08T05:38:45.217Z,95793.81
2023-04-08T05:41:14.141Z,95805.03
2023-04-08T05:43:43.085Z,95801.25
2023-04-08T05:46:12.229Z,95801.03
2023-04-08T05:48:41.178Z,95803.69
2023-04-08T05:51:18.526Z,95803.63
2023-04-08T05:53:47.797Z,95810.19
2023-04-08T05:56:16.929Z,95811.72
2023-04-08T05:58:45.800Z,95799.75
2023-04-08T06:01:15.524Z,95799.47
2023-04-08T06:03:44.934Z,95796.00
2023-04-08T06:06:15.200Z,95799.75
2023-04-08T06:08:44.542Z,95793.00
2023-04-08T06:11:13.995Z,95795.53
2023-04-08T06:13:43.578Z,95799.56
2023-04-08T06:16:13.961Z,95792.41
2023-04-08T06:18:43.140Z,95794.91
2023-04-08T06:21:12.776Z,95781.25
2023-04-08T06:23:41.981Z,95785.94
2023-04-08T06:26:11.207Z,95791.47
2023-04-08T06:28:40.220Z,95787.97
2023-04-08T06:31:09.060Z,95790.22
2023-04-08T06:33:38.285Z,95792.75
2023-04-08T06:36:09.147Z,95790.94
2023-04-08T06:38:38.253Z,95792.66
2023-04-08T06:41:08.373Z,95789.75
2023-04-08T06:43:38.228Z,95794.13
2023-04-08T06:46:08.156Z,95785.50
2023-04-08T06:48:38.319Z,95781.03
2023-04-08T06:51:08.427Z,95784.47
2023-04-08T06:53:37.299Z,95781.59
2023-04-08T06:56:06.362Z,95784.97
2023-04-08T06:58:35.384Z,95784.31
2023-04-08T07:01:06.121Z,95776.84
2023-04-08T07:03:35.289Z,95780.91
2023-04-08T07:06:05.021Z,95780.84
2023-04-08T07:08:33.836Z,95771.03
2023-04-08T07:11:03.088Z,95783.25
2023-04-08T07:13:32.137Z,95781.88
2023-04-08T07:16:02.326Z,95783.84
2023-04-08T07:18:31.416Z,95785.13
2023-04-08T07:21:01.615Z,95787.94
2023-04-08T07:23:30.544Z,95792.53
2023-04-08T07:26:05.083Z,95785.34
2023-04-08T07:28:33.976Z,95775.75
2023-04-08T07:31:15.072Z,95772.91
2023-04-08T07:33:44.927Z,95768.63
2023-04-08T07:36:14.668Z,95766.19
2023-04-08T07:38:43.456Z,95771.06
2023-04-08T07:41:12.357Z,95761.69
2023-04-08T07:43:41.194Z,95767.00
2023-04-08T07:46:10.383Z,95769.16
2023-04-08T07:48:39.329Z,95763.84
2023-04-08T07:51:11.399Z,95758.66
2023-04-08T07:53:41.341Z,95761.47
2023-04-08T07:56:15.359Z,95769.00
2023-04-08T07:58:44.782Z,95762.47
2023-04-08T08:01:22.721Z,95763.53
2023-04-08T08:03:53.934Z,95755.72
2023-04-08T08:06:23.436Z,95761.56
2023-04-08T08:08:52.334Z,95769.75
2023-04-08T08:11:22.056Z,95764.09
2023-04-08T08:13:51.101Z,95758.97
2023-04-08T08:16:20.532Z,95743.06
2023-04-08T08:18:49.644Z,95752.25
2023-04-08T08:21:18.443Z,95753.84
2023-04-08T08:23:47.552Z,95742.34
2023-04-08T08:26:16.424Z,95746.69
2023-04-08T08:28:45.460Z,95735.00
2023-04-08T08:31:14.308Z,95740.88
2023-04-08T08:33:43.183Z,95743.25
2023-04-08T08:36:12.076Z,95736.84
2023-04-08T08:38:40.968Z,95737.47
2023-04-08T08:41:10.434Z,95743.22
2023-04-08T08:43:39.783Z,95730.16
2023-04-08T08:46:14.619Z,95738.63
2023-04-08T08:48:43.726Z,95733.69
2023-04-08T08:51:13.595Z,95735.75
2023-04-08T08:53:46.061Z,95728.06
2023-04-08T08:56:18.453Z,95723.41
2023-04-08T08:58:48.154Z,95728.16
2023-04-08T09:01:35.061Z,95728.06
2023-04-08T09:04:21.993Z,95722.31
2023-04-08T09:07:08.987Z,95725.44
2023-04-08T09:09:51.845Z,95716.38
2023-04-08T09:12:21.356Z,95719.16
2023-04-08T09:14:50.328Z,95718.84
2023-04-08T09:17:37.087Z,95714.31
2023-04-08T09:20:12.716Z,95724.16
2023-04-08T09:23:02.145Z,95717.72
2023-04-08T09:25:33.247Z,95712.28
2023-04-08T09:28:03.718Z,95708.69
2023-04-08T09:30:33.814Z,95698.06
2023-04-08T09:33:07.742Z,95706.31
2023-04-08T09:35:37.166Z,95710.69
2023-04-08T09:38:06.360Z,95712.69
2023-04-08T09:40:37.108Z,95712.53
2023-04-08T09:43:08.010Z,95711.72
2023-04-08T09:45:38.008Z,95705.16
2023-04-08T09:48:24.721Z,95712.13
2023-04-08T09:50:53.519Z,95699.75
2023-04-08T09:53:31.328Z,95702.06
2023-04-08T09:56:01.650Z,95708.03
2023-04-08T09:58:35.339Z,95696.59
2023-04-08T10:01:06.633Z,95696.59
2023-04-08T10:03:46.616Z,95693.13
2023-04-08T10:06:17.571Z,95693.59
2023-04-08T10:08:47.224Z,95687.81
2023-04-08T10:11:17.352Z,95694.06
2023-04-08T10:13:46.534Z,95690.00
2023-04-08T10:16:27.901Z,95681.09
2023-04-08T10:18:57.930Z,95682.38
2023-04-08T10:21:37.528Z,95675.31
2023-04-08T10:24:11.565Z,95677.97
2023-04-08T10:26:42.903Z,95670.97
2023-04-08T10:29:30.450Z,95672.97
2023-04-08T10:31:59.994Z,95673.09
2023-04-08T10:34:30.123Z,95674.38
2023-04-08T10:37:02.818Z,95679.00
2023-04-08T10:39:32.328Z,95668.31
2023-04-08T10:42:03.229Z,95676.13
2023-04-08T10:44:32.200Z,95670.63
2023-04-08T10:47:01.766Z,95665.09
2023-04-08T10:49:35.530Z,95661.03
2023-04-08T10:52:08.442Z,95670.31
2023-04-08T10:54:39.046Z,95661.91
2023-04-08T10:57:07.995Z,95653.91
2023-04-08T10:59:37.524Z,95656.66
2023-04-08T11:02:07.732Z,95653.66
2023-04-08T11:04:43.185Z,95653.16
2023-04-08T11:07:13.271Z,95654.81
2023-04-08T11:09:43.050Z,95653.28
2023-04-08T11:12:12.289Z,95657.28
2023-04-08T11:14:41.825Z,95645.25
2023-04-08T11:17:10.749Z,95635.66
2023-04-08T11:19:40.859Z,95638.78
2023-04-08T11:22:10.923Z,95648.59
2023-04-08T11:24:40.485Z,95647.91
2023-04-08T11:27:09.413Z,95644.75
2023-04-08T11:29:38.829Z,95639.09
2023-04-08T11:32:09.569Z,95632.53
2023-04-08T11:34:41.302Z,95634.81
2023-04-08T11:37:10.185Z,95635.69
2023-04-08T11:39:45.416Z,95636.66
2023-04-08T11:42:31.459Z,95642.81
2023-04-08T11:45:00.596Z,95647.22
2023-04-08T11:47:34.000Z,95637.41
2023-04-08T11:50:04.224Z,95635.66
2023-04-08T11:52:49.179Z,95635.44
2023-04-08T11:55:27.293Z,95633.75
2023-04-08T11:57:57.520Z,95629.38
2023-04-08T12:00:28.672Z,95630.03
2023-04-08T12:02:57.823Z,95625.50
2023-04-08T12:05:26.690Z,95632.44
2023-04-08T12:07:55.506Z,95633.38
2023-04-08T12:10:25.899Z,95636.38
2023-04-08T12:12:55.020Z,95636.75
2023-04-08T12:15:23.861Z,95634.25
2023-04-08T12:17:52.703Z,95626.69
2023-04-08T12:20:21.736Z,95628.63
2023-04-08T12:22:50.574Z,95630.78
2023-04-08T12:25:19.510Z,95624.69
2023-04-08T12:27:48.790Z,95620.59
2023-04-08T12:30:17.645Z,95629.63
2023-04-08T12:32:48.198Z,95614.44
2023-04-08T12:35:17.487Z,95627.91
2023-04-08T12:37:46.356Z,95624.84
2023-04-08T12:40:16.344Z,95624.06
2023-04-08T12:42:45.119Z,95617.28
2023-04-08T12:45:13.898Z,95621.00
2023-04-08T12:47:43.042Z,95616.00
2023-04-08T12:50:11.969Z,95613.66
2023-04-08T12:52:41.282Z,95610.03
2023-04-08T12:55:10.790Z,95609.03
2023-04-08T12:57:39.597Z,95615.34
2023-04-08T13:00:10.097Z,95611.94
2023-04-08T13:02:39.578Z,95611.72
2023-04-08T13:05:09.036Z,95610.72
2023-04-08T13:07:37.897Z,95601.75
2023-04-08T13:10:07.792Z,95600.66
2023-04-08T13:12:37.041Z,95597.25
2023-04-08T13:15:06.855Z,95596.50
2023-04-08T13:17:36.178Z,95587.00
2023-04-08T13:20:05.687Z,95588.34
2023-04-08T13:22:34.540Z,95580.75
2023-04-08T13:25:03.540Z,95587.31
2023-04-08T13:27:32.384Z,95588.66
2023-04-08T13:30:01.588Z,95576.88
2023-04-08T13:32:32.429Z,95583.56
2023-04-08T13:35:01.443Z,95577.56
2023-04-08T13:37:32.160Z,95579.72
2023-04-08T13:40:01.068Z,95578.19
2023-04-08T13:42:34.811Z,95573.00
2023-04-08T13:45:03.705Z,95570.16
2023-04-08T13:47:32.786Z,95572.53
2023-04-08T13:50:01.579Z,95568.63
2023-04-08T13:52:32.686Z,95555.81
2023-04-08T13:55:01.614Z,95569.75
2023-04-08T13:57:32.322Z,95548.47
2023-04-08T14:00:01.292Z,95562.16
2023-04-08T14:02:32.748Z,95556.66
2023-04-08T14:05:02.138Z,95556.09
2023-04-08T14:07:32.162Z,95551.34
2023-04-08T14:10:01.262Z,95548.13
2023-04-08T14:12:32.120Z,95543.22
2023-04-08T14:15:00.971Z,95549.28
2023-04-08T14:17:31.691Z,95544.84
2023-04-08T14:20:01.746Z,95548.03
2023-04-08T14:22:31.293Z,95535.22
2023-04-08T14:25:00.201Z,95536.84
2023-04-08T14:27:29.141Z,95534.97
2023-04-08T14:29:57.923Z,95534.97
2023-04-08T14:32:27.217Z,95533.69
2023-04-08T14:34:56.336Z,95535.53
2023-04-08T14:37:25.148Z,95532.13
2023-04-08T14:39:54.191Z,95530.00
2023-04-08T14:42:23.183Z,95528.19
2023-04-08T14:44:52.320Z,95526.09
2023-04-08T14:47:21.730Z,95518.47
2023-04-08T14:49:50.487Z,95524.25
2023-04-08T14:52:19.750Z,95521.38
2023-04-08T14:54:48.906Z,95526.94
2023-04-08T14:57:17.643Z,95516.97
2023-04-08T14:59:46.520Z,95514.88
2023-04-08T15:02:16.683Z,95511.25
2023-04-08T15:04:45.981Z,95511.75
2023-04-08T15:07:14.923Z,95509.69
2023-04-08T15:09:43.754Z,95497.88
2023-04-08T15:12:13.764Z,95497.31
2023-04-08T15:14:42.765Z,95495.25
2023-04-08T15:17:12.072Z,95491.00
2023-04-08T15:19:40.977Z,95489.19
2023-04-08T15:22:09.804Z,95490.28
2023-04-08T15:24:40.163Z,95484.22
2023-04-08T15:27:09.338Z,95488.44
2023-04-08T15:29:38.249Z,95488.72
2023-04-08T15:32:07.138Z,95485.28
2023-04-08T15:34:36.098Z,95470.09
2023-04-08T15:37:05.212Z,95471.44
2023-04-08T15:39:34.095Z,95475.38
2023-04-08T15:42:03.279Z,95467.75
2023-04-08T15:44:33.600Z,95471.97
2023-04-08T15:47:03.393Z,95460.94
2023-04-08T15:49:32.943Z,95471.97
2023-04-08T15:52:02.144Z,95469.63
2023-04-08T15:54:31.323Z,95465.19
2023-04-08T15:57:00.201Z,95470.22
2023-04-08T15:59:32.965Z,95471.28
2023-04-08T16:02:03.003Z,95463.72
2023-04-08T16:04:32.441Z,95462.44
2023-04-08T16:07:01.215Z,95460.84
2023-04-08T16:09:30.977Z,95462.44
2023-04-08T16:12:00.673Z,95461.09
2023-04-08T16:14:30.810Z,95467.66
2023-04-08T16:16:59.583Z,95457.94
2023-04-08T16:19:28.879Z,95462.19
2023-04-08T16:21:57.689Z,95461.47
2023-04-08T16:24:26.523Z,95464.91
2023-04-08T16:26:55.285Z,95466.22
2023-04-08T16:29:24.336Z,95461.78
2023-04-08T16:31:54.529Z,95464.22
2023-04-08T16:34:24.133Z,95456.31
2023-04-08T16:36:53.379Z,95452.69
2023-04-08T16:39:22.176Z,95460.00
2023-04-08T16:41:50.906Z,95457.38
2023-04-08T16:44:19.655Z,95451.84
2023-04-08T16:46:48.391Z,95453.47
2023-04-08T16:49:18.334Z,95448.53
2023-04-08T16:51:47.642Z,95454.09
2023-04-08T16:54:16.555Z,95455.72
2023-04-08T16:56:46.326Z,95460.69
2023-04-08T16:59:15.188Z,95462.53
2023-04-08T17:01:44.898Z,95460.44
2023-04-08T17:04:13.861Z,95453.59
2023-04-08T17:06:42.903Z,95453.38
2023-04-08T17:09:11.762Z,95454.19
2023-04-08T17:11:40.624Z,95453.97
2023-04-08T17:14:09.466Z,95451.38
2023-04-08T17:16:38.256Z,95448.53
2023-04-08T17:19:07.007Z,95440.44
2023-04-08T17:21:36.118Z,95441.75
2023-04-08T17:24:04.891Z,95437.34
2023-04-08T17:26:33.943Z,95443.44
2023-04-08T17:29:02.733Z,95431.41
2023-04-08T17:31:32.071Z,95436.38
2023-04-08T17:34:00.929Z,95426.38
2023-04-08T17:36:30.697Z,95435.28
2023-04-08T17:38:59.647Z,95434.19
2023-04-08T17:41:39.052Z,95422.97
2023-04-08T17:44:09.104Z,95425.13
2023-04-08T17:46:37.938Z,95419.44
2023-04-08T17:49:06.729Z,95429.16
2023-04-08T17:51:35.515Z,95424.72
2023-04-08T17:54:05.039Z,95420.25
2023-04-08T17:56:33.982Z,95412.44
2023-04-08T17:59:02.700Z,95414.25
2023-04-08T18:01:32.163Z,95417.16
2023-04-08T18:04:01.552Z,95414.78
2023-04-08T18:06:32.506Z,95422.09
2023-04-08T18:09:01.447Z,95413.66
2023-04-08T18:11:30.589Z,95412.38
2023-04-08T18:13:59.508Z,95405.88
2023-04-08T18:16:28.327Z,95410.88
2023-04-08T18:18:57.115Z,95414.53
2023-04-08T18:21:26.059Z,95406.97
2023-04-08T18:23:54.976Z,95405.41
2023-04-08T18:26:23.810Z,95405.91
2023-04-08T18:28:52.549Z,95404.34
2023-04-08T18:31:21.442Z,95401.75
2023-04-08T18:33:50.818Z,95393.41
2023-04-08T18:36:19.820Z,95402.56
2023-04-08T18:38:49.985Z,95402.00
2023-04-08T18:41:21.442Z,95399.16
2023-04-08T18:43:50.337Z,95396.53
2023-04-08T18:46:20.474Z,95393.66
2023-04-08T18:48:49.785Z,95388.44
2023-04-08T18:51:18.703Z,95390.31
2023-04-08T18:53:47.534Z,95384.28
2023-04-08T18:56:17.383Z,95386.13
2023-04-08T18:58:47.506Z,95377.25
2023-04-08T19:01:17.720Z,95384.06
2023-04-08T19:03:47.268Z,95369.72
2023-04-08T19:06:17.980Z,95367.09
2023-04-08T19:08:48.228Z,95368.66
2023-04-08T19:11:17.165Z,95357.38
2023-04-08T19:13:46.566Z,95359.44
2023-04-08T19:16:15.477Z,95363.09
2023-04-08T19:18:44.239Z,95359.13
2023-04-08T19:21:13.477Z,95360.94
2023-04-08T19:23:42.260Z,95358.84
2023-04-08T19:26:11.700Z,95357.53
2023-04-08T19:28:40.660Z,95352.03
2023-04-08T19:31:20.719Z,95350.75
2023-04-08T19:33:49.865Z,95349.97
2023-04-08T19:36:18.817Z,95346.56
2023-04-08T19:38:47.587Z,95337.88
2023-04-08T19:41:16.686Z,95338.41
2023-04-08T19:43:45.847Z,95339.75
2023-04-08T19:46:14.752Z,95338.44
2023-04-08T19:48:43.543Z,95338.19
2023-04-08T19:51:21.272Z,95335.06
2023-04-08T19:53:53.266Z,95331.44
2023-04-08T19:56:22.257Z,95329.59
2023-04-08T19:58:51.441Z,95322.50
2023-04-08T20:01:21.416Z,95314.69
2023-04-08T20:03:53.477Z,95322.00
2023-04-08T20:06:23.604Z,95313.13
2023-04-08T20:08:53.975Z,95311.56
2023-04-08T20:11:22.934Z,95315.47
2023-04-08T20:13:51.988Z,95297.97
2023-04-08T20:16:21.272Z,95313.69
2023-04-08T20:18:50.437Z,95312.13
2023-04-08T20:21:19.342Z,95315.00
2023-04-08T20:23:48.294Z,95307.88
2023-04-08T20:26:17.385Z,95305.53
2023-04-08T20:28:46.742Z,95305.53
2023-04-08T20:31:16.715Z,95307.13
2023-04-08T20:33:46.097Z,95303.44
2023-04-08T20:36:15.047Z,95310.25
2023-04-08T20:38:43.919Z,95308.69
2023-04-08T20:41:12.674Z,95302.38
2023-04-08T20:43:41.575Z,95305.78
2023-04-08T20:46:10.623Z,95303.44
2023-04-08T20:48:40.097Z,95306.84
2023-04-08T20:51:09.111Z,95306.84
2023-04-08T20:53:38.113Z,95312.63
2023-04-08T20:56:07.350Z,95309.22
2023-04-08T20:58:36.131Z,95319.97
2023-04-08T21:01:05.929Z,95321.28
2023-04-08T21:03:35.104Z,95311.38
2023-04-08T21:06:03.913Z,95307.72
2023-04-08T21:08:32.703Z,95295.16
2023-04-08T21:11:01.443Z,95298.84
2023-04-08T21:13:30.332Z,95288.09
2023-04-08T21:15:59.158Z,95299.59
2023-04-08T21:18:27.955Z,95306.41
2023-04-08T21:20:57.179Z,95309.78
2023-04-08T21:23:26.369Z,95302.75
2023-04-08T21:25:55.137Z,95303.50
2023-04-08T21:28:24.167Z,95294.03
2023-04-08T21:30:53.170Z,95302.41
2023-04-08T21:33:22.047Z,95302.16
2023-04-08T21:35:50.844Z,95299.47
2023-04-08T21:38:19.570Z,95293.19
2023-04-08T21:40:48.381Z,95286.63
2023-04-08T21:43:17.208Z,95277.19
2023-04-08T21:45:46.007Z,95281.84
2023-04-08T21:48:14.770Z,95271.84
2023-04-08T21:50:43.575Z,95264.47
2023-04-08T21:53:12.704Z,95251.13
2023-04-08T21:55:41.360Z,95266.50
2023-04-08T21:58:12.875Z,95262.59
2023-04-08T22:00:42.446Z,95251.59
2023-04-08T22:03:11.522Z,95255.75
2023-04-08T22:05:40.398Z,95248.97
2023-04-08T22:08:09.251Z,95234.00
2023-04-08T22:10:38.463Z,95229.25
2023-04-08T22:13:07.637Z,95227.44
2023-04-08T22:15:36.499Z,95229.78
2023-04-08T22:18:05.592Z,95230.53
2023-04-08T22:20:34.441Z,95227.72
2023-04-08T22:23:03.435Z,95230.38
2023-04-08T22:25:32.372Z,95232.75
2023-04-08T22:28:01.352Z,95230.97
2023-04-08T22:30:31.534Z,95222.56
2023-04-08T22:33:00.447Z,95224.66
2023-04-08T22:35:29.744Z,95218.63
2023-04-08T22:37:58.767Z,95201.06
2023-04-08T22:40:27.669Z,95204.44
2023-04-08T22:42:56.750Z,95200.19
2023-04-08T22:45:25.959Z,95201.19
2023-04-08T22:47:55.094Z,95201.16
2023-04-08T22:50:24.349Z,95201.63
2023-04-08T22:52:53.417Z,95196.31
2023-04-08T22:55:22.316Z,95194.44
2023-04-08T22:57:51.142Z,95205.38
2023-04-08T23:00:21.214Z,95202.94
2023-04-08T23:02:50.434Z,95202.06
2023-04-08T23:05:19.516Z,95217.72
2023-04-08T23:07:48.276Z,95216.81
2023-04-08T23:10:17.078Z,95217.97
2023-04-08T23:12:45.876Z,95215.53
2023-04-08T23:15:14.652Z,95230.84
2023-04-08T23:17:43.593Z,95228.69
2023-04-08T23:20:13.046Z,95222.81
2023-04-08T23:22:42.250Z,95227.72
2023-04-08T23:25:11.421Z,95215.28
2023-04-08T23:27:40.871Z,95213.06
2023-04-08T23:30:10.009Z,95213.00
2023-04-08T23:32:38.811Z,95209.81
2023-04-08T23:35:09.360Z,95212.28
2023-04-08T23:37:38.201Z,95206.63
2023-04-08T23:40:07.861Z,95209.41
2023-04-08T23:42:36.679Z,95210.31
2023-04-08T23:45:06.934Z,95202.31
2023-04-08T23:47:35.814Z,95195.63
2023-04-08T23:50:04.799Z,95196.81
2023-04-08T23:52:33.602Z,95202.69
2023-04-08T23:55:02.558Z,95207.97
2023-04-08T23:57:31.894Z,95202.06
